createdAt,value
2022-09-26T00:01:21.135Z,96643.38
2022-09-26T00:03:50.990Z,96639.63
2022-09-26T00:06:21.403Z,96638.66
2022-09-26T00:08:49.571Z,96645.56
2022-09-26T00:11:19.693Z,96639.94
2022-09-26T00:13:51.258Z,96641.66
2022-09-26T00:16:17.757Z,96637.97
2022-09-26T00:18:48.446Z,96635.22
2022-09-26T00:21:15.293Z,96638.13
2022-09-26T00:23:42.234Z,96638.38
2022-09-26T00:26:09.948Z,96631.69
2022-09-26T00:28:37.101Z,96632.59
2022-09-26T00:31:28.173Z,96626.00
2022-09-26T00:33:58.691Z,96621.34
2022-09-26T00:36:37.093Z,96626.00
2022-09-26T00:39:07.905Z,96626.56
2022-09-26T00:41:37.651Z,96622.31
2022-09-26T00:44:42.807Z,96621.75
2022-09-26T00:47:49.846Z,96619.31
2022-09-26T00:50:24.803Z,96626.97
2022-09-26T00:52:57.896Z,96625.03
2022-09-26T00:55:30.187Z,96629.28
2022-09-26T00:58:04.442Z,96621.16
2022-09-26T01:00:31.352Z,96618.13
2022-09-26T01:02:58.446Z,96625.78
2022-09-26T01:05:25.647Z,96621.22
2022-09-26T01:07:53.860Z,96619.50
2022-09-26T01:10:21.019Z,96618.88
2022-09-26T01:12:47.849Z,96616.84
2022-09-26T01:15:14.539Z,96609.53
2022-09-26T01:17:43.530Z,96609.00
2022-09-26T01:20:28.138Z,96606.84
2022-09-26T01:23:14.648Z,96613.28
2022-09-26T01:26:18.474Z,96613.00
2022-09-26T01:29:00.048Z,96614.25
2022-09-26T01:31:32.489Z,96605.63
2022-09-26T01:34:27.968Z,96612.16
2022-09-26T01:37:03.503Z,96613.81
2022-09-26T01:39:56.170Z,96604.28
2022-09-26T01:43:00.298Z,96596.13
2022-09-26T01:45:39.372Z,96593.28
2022-09-26T01:48:18.718Z,96597.69
2022-09-26T01:50:57.606Z,96595.94
2022-09-26T01:53:43.608Z,96599.06
2022-09-26T01:56:20.021Z,96593.19
2022-09-26T01:59:12.805Z,96593.97
2022-09-26T02:01:43.639Z,96597.50
2022-09-26T02:04:25.491Z,96591.47
2022-09-26T02:07:00.487Z,96599.56
2022-09-26T02:09:35.093Z,96595.22
2022-09-26T02:12:09.574Z,96592.31
2022-09-26T02:14:41.812Z,96587.34
2022-09-26T02:17:15.297Z,96591.78
2022-09-26T02:19:59.044Z,96575.63
2022-09-26T02:22:43.443Z,96582.91
2022-09-26T02:25:11.643Z,96584.31
2022-09-26T02:27:38.570Z,96586.88
2022-09-26T02:30:07.045Z,96588.72
2022-09-26T02:32:34.209Z,96586.78
2022-09-26T02:35:01.584Z,96584.31
2022-09-26T02:37:28.869Z,96591.88
2022-09-26T02:39:56.140Z,96588.25
2022-09-26T02:42:36.609Z,96592.00
2022-09-26T02:45:03.063Z,96592.13
2022-09-26T02:47:44.762Z,96588.06
2022-09-26T02:50:19.136Z,96584.28
2022-09-26T02:53:16.083Z,96583.16
2022-09-26T02:55:45.506Z,96582.34
2022-09-26T02:58:18.011Z,96582.09
2022-09-26T03:01:05.077Z,96586.47
2022-09-26T03:03:40.786Z,96587.59
2022-09-26T03:06:13.085Z,96579.06
2022-09-26T03:08:44.034Z,96585.41
2022-09-26T03:11:13.580Z,96582.59
2022-09-26T03:13:40.633Z,96585.22
2022-09-26T03:16:09.593Z,96572.19
2022-09-26T03:18:45.010Z,96579.53
2022-09-26T03:21:11.514Z,96576.69
2022-09-26T03:23:38.477Z,96576.56
2022-09-26T03:26:10.598Z,96574.75
2022-09-26T03:28:38.115Z,96582.09
2022-09-26T03:31:05.104Z,96572.44
2022-09-26T03:33:31.578Z,96575.50
2022-09-26T03:36:00.057Z,96572.56
2022-09-26T03:38:27.580Z,96569.97
2022-09-26T03:40:54.045Z,96570.78
2022-09-26T03:43:21.662Z,96574.63
2022-09-26T03:45:48.093Z,96572.66
2022-09-26T03:48:16.631Z,96567.56
2022-09-26T03:50:43.518Z,96566.97
2022-09-26T03:53:10.404Z,96568.31
2022-09-26T03:55:36.799Z,96558.66
2022-09-26T03:58:03.532Z,96561.44
2022-09-26T04:00:29.939Z,96558.91
2022-09-26T04:02:57.750Z,96564.59
2022-09-26T04:05:24.144Z,96558.69
2022-09-26T04:07:50.582Z,96558.13
2022-09-26T04:10:17.097Z,96565.84
2022-09-26T04:12:44.591Z,96561.81
2022-09-26T04:15:11.163Z,96555.91
2022-09-26T04:17:37.555Z,96553.28
2022-09-26T04:20:06.759Z,96558.09
2022-09-26T04:22:33.414Z,96558.09
2022-09-26T04:25:01.011Z,96556.97
2022-09-26T04:27:28.809Z,96563.59
2022-09-26T04:29:57.681Z,96559.34
2022-09-26T04:32:26.421Z,96552.06
2022-09-26T04:34:52.795Z,96547.06
2022-09-26T04:37:20.954Z,96545.22
2022-09-26T04:39:47.754Z,96552.03
2022-09-26T04:42:14.295Z,96551.41
2022-09-26T04:44:40.724Z,96555.97
2022-09-26T04:47:07.148Z,96547.88
2022-09-26T04:49:33.617Z,96557.28
2022-09-26T04:52:00.097Z,96547.47
2022-09-26T04:54:26.481Z,96542.69
2022-09-26T04:56:52.899Z,96542.94
2022-09-26T04:59:24.315Z,96539.50
2022-09-26T05:01:50.788Z,96536.69
2022-09-26T05:04:22.792Z,96540.25
2022-09-26T05:06:51.803Z,96535.28
2022-09-26T05:09:18.202Z,96540.00
2022-09-26T05:11:44.669Z,96536.91
2022-09-26T05:14:11.103Z,96530.59
2022-09-26T05:16:39.796Z,96539.34
2022-09-26T05:19:06.339Z,96532.19
2022-09-26T05:21:32.811Z,96535.34
2022-09-26T05:24:17.819Z,96529.59
2022-09-26T05:26:47.741Z,96537.53
2022-09-26T05:29:14.442Z,96535.53
2022-09-26T05:31:41.055Z,96530.38
2022-09-26T05:34:13.075Z,96542.03
2022-09-26T05:36:43.002Z,96537.69
2022-09-26T05:39:29.563Z,96540.09
2022-09-26T05:41:58.091Z,96541.22
2022-09-26T05:44:24.579Z,96539.56
2022-09-26T05:46:51.933Z,96535.84
2022-09-26T05:49:18.715Z,96538.31
2022-09-26T05:51:46.440Z,96541.22
2022-09-26T05:54:13.056Z,96543.97
2022-09-26T05:56:39.439Z,96546.06
2022-09-26T05:59:06.019Z,96550.06
2022-09-26T06:01:34.080Z,96539.03
2022-09-26T06:04:00.809Z,96545.19
2022-09-26T06:06:27.259Z,96542.84
2022-09-26T06:08:56.206Z,96535.34
2022-09-26T06:11:24.911Z,96541.56
2022-09-26T06:13:51.356Z,96545.53
2022-09-26T06:16:20.705Z,96541.13
2022-09-26T06:18:50.555Z,96544.41
2022-09-26T06:21:18.980Z,96546.91
2022-09-26T06:23:45.782Z,96538.06
2022-09-26T06:26:19.966Z,96539.25
2022-09-26T06:28:47.167Z,96551.69
2022-09-26T06:31:22.055Z,96552.13
2022-09-26T06:33:55.100Z,96551.44
2022-09-26T06:36:26.057Z,96556.88
2022-09-26T06:38:56.692Z,96558.50
2022-09-26T06:41:25.963Z,96549.47
2022-09-26T06:43:52.385Z,96553.59
2022-09-26T06:46:18.895Z,96556.09
2022-09-26T06:48:48.216Z,96551.16
2022-09-26T06:51:15.226Z,96557.56
2022-09-26T06:53:42.854Z,96551.78
2022-09-26T06:56:09.285Z,96541.66
2022-09-26T06:58:35.690Z,96553.25
2022-09-26T07:01:02.642Z,96555.81
2022-09-26T07:03:29.566Z,96547.41
2022-09-26T07:05:56.671Z,96553.03
2022-09-26T07:08:43.249Z,96548.00
2022-09-26T07:11:32.595Z,96553.25
2022-09-26T07:14:01.870Z,96558.50
2022-09-26T07:16:28.890Z,96562.97
2022-09-26T07:18:55.801Z,96559.84
2022-09-26T07:21:22.447Z,96557.97
2022-09-26T07:23:48.926Z,96564.06
2022-09-26T07:26:15.371Z,96562.38
2022-09-26T07:28:44.627Z,96562.84
2022-09-26T07:31:11.129Z,96556.88
2022-09-26T07:33:39.294Z,96565.53
2022-09-26T07:36:09.696Z,96559.19
2022-09-26T07:38:36.316Z,96562.84
2022-09-26T07:41:02.991Z,96566.63
2022-09-26T07:44:06.382Z,96567.81
2022-09-26T07:46:34.623Z,96564.53
2022-09-26T07:49:19.707Z,96557.91
2022-09-26T07:51:46.176Z,96562.78
2022-09-26T07:54:12.733Z,96555.88
2022-09-26T07:56:40.283Z,96561.59
2022-09-26T07:59:06.649Z,96558.81
2022-09-26T08:01:33.112Z,96556.47
2022-09-26T08:03:59.759Z,96551.41
2022-09-26T08:06:27.544Z,96558.69
2022-09-26T08:08:55.312Z,96549.75
2022-09-26T08:11:22.395Z,96545.63
2022-09-26T08:13:49.134Z,96548.84
2022-09-26T08:16:20.653Z,96551.72
2022-09-26T08:18:47.167Z,96545.59
2022-09-26T08:21:13.560Z,96554.69
2022-09-26T08:23:39.977Z,96554.75
2022-09-26T08:26:09.719Z,96552.19
2022-09-26T08:28:37.541Z,96567.00
2022-09-26T08:31:05.247Z,96554.16
2022-09-26T08:33:36.016Z,96546.66
2022-09-26T08:36:15.421Z,96543.75
2022-09-26T08:38:41.968Z,96547.44
2022-09-26T08:41:17.691Z,96549.63
2022-09-26T08:44:03.578Z,96559.66
2022-09-26T08:46:51.254Z,96560.47
2022-09-26T08:49:25.717Z,96554.72
2022-09-26T08:51:54.260Z,96557.84
2022-09-26T08:54:37.815Z,96556.03
2022-09-26T08:57:14.018Z,96554.63
2022-09-26T08:59:46.616Z,96555.13
2022-09-26T09:02:30.610Z,96542.06
2022-09-26T09:05:17.212Z,96547.00
2022-09-26T09:07:49.287Z,96550.31
2022-09-26T09:10:19.031Z,96552.94
2022-09-26T09:13:07.404Z,96557.38
2022-09-26T09:15:59.714Z,96557.88
2022-09-26T09:19:14.542Z,96552.94
2022-09-26T09:22:10.046Z,96553.13
2022-09-26T09:25:05.591Z,96543.59
2022-09-26T09:28:05.518Z,96538.81
2022-09-26T09:30:43.852Z,96542.44
2022-09-26T09:33:15.684Z,96537.00
2022-09-26T09:35:51.172Z,96536.53
2022-09-26T09:38:21.108Z,96534.53
2022-09-26T09:40:59.923Z,96527.69
2022-09-26T09:43:41.085Z,96526.56
2022-09-26T09:46:37.800Z,96530.84
2022-09-26T09:49:10.314Z,96529.78
2022-09-26T09:51:52.641Z,96517.44
2022-09-26T09:54:31.343Z,96518.31
2022-09-26T09:57:08.909Z,96521.75
2022-09-26T10:00:07.634Z,96520.25
2022-09-26T10:02:58.456Z,96518.19
2022-09-26T10:05:46.879Z,96518.09
2022-09-26T10:08:22.618Z,96507.91
2022-09-26T10:11:23.919Z,96505.63
2022-09-26T10:13:56.667Z,96509.91
2022-09-26T10:16:25.127Z,96504.97
2022-09-26T10:19:04.078Z,96499.38
2022-09-26T10:21:39.264Z,96500.34
2022-09-26T10:24:07.306Z,96494.75
2022-09-26T10:26:35.341Z,96491.38
2022-09-26T10:29:24.862Z,96488.41
2022-09-26T10:31:56.441Z,96486.28
2022-09-26T10:34:34.851Z,96482.31
2022-09-26T10:37:23.842Z,96486.72
2022-09-26T10:40:11.903Z,96487.38
2022-09-26T10:42:38.650Z,96488.06
2022-09-26T10:45:20.430Z,96493.50
2022-09-26T10:47:51.274Z,96492.03
2022-09-26T10:50:24.974Z,96480.34
2022-09-26T10:52:57.093Z,96477.97
2022-09-26T10:55:31.081Z,96474.72
2022-09-26T10:58:02.184Z,96468.34
2022-09-26T11:00:37.724Z,96476.53
2022-09-26T11:03:09.778Z,96472.53
2022-09-26T11:06:00.292Z,96476.31
2022-09-26T11:08:32.174Z,96469.03
2022-09-26T11:11:04.785Z,96468.22
2022-09-26T11:14:10.414Z,96467.25
2022-09-26T11:16:57.216Z,96462.00
2022-09-26T11:19:42.584Z,96445.91
2022-09-26T11:22:26.024Z,96459.41
2022-09-26T11:28:08.234Z,96442.25
2022-09-26T11:33:25.901Z,96440.06
2022-09-26T11:38:59.321Z,96442.38
2022-09-26T11:41:37.329Z,96437.84
2022-09-26T11:44:26.597Z,96432.00
2022-09-26T11:47:11.277Z,96427.09
2022-09-26T11:49:52.917Z,96422.91
2022-09-26T11:52:38.213Z,96417.50
2022-09-26T11:55:17.784Z,96415.63
2022-09-26T11:57:48.498Z,96425.88
2022-09-26T12:00:24.520Z,96412.34
2022-09-26T12:03:14.793Z,96406.88
2022-09-26T12:06:00.827Z,96413.22
2022-09-26T12:09:13.273Z,96404.56
2022-09-26T12:11:43.019Z,96398.13
2022-09-26T12:14:22.249Z,96397.53
2022-09-26T12:17:01.383Z,96384.41
2022-09-26T12:19:55.671Z,96388.16
2022-09-26T12:22:31.686Z,96380.97
2022-09-26T12:25:20.152Z,96385.47
2022-09-26T12:28:20.176Z,96373.91
2022-09-26T12:31:05.165Z,96375.66
2022-09-26T12:33:58.643Z,96371.56
2022-09-26T12:36:25.036Z,96391.56
2022-09-26T12:38:57.957Z,96384.13
2022-09-26T12:42:03.449Z,96374.66
2022-09-26T12:44:49.883Z,96376.88
2022-09-26T12:47:38.529Z,96371.88
2022-09-26T12:50:29.240Z,96366.84
2022-09-26T12:53:33.394Z,96380.63
2022-09-26T12:56:10.966Z,96398.41
2022-09-26T12:59:09.047Z,96416.03
2022-09-26T13:01:58.480Z,96407.16
2022-09-26T13:05:08.327Z,96401.72
2022-09-26T13:07:42.063Z,96398.00
2022-09-26T13:10:40.993Z,96388.66
2022-09-26T13:13:46.347Z,96382.44
2022-09-26T13:16:30.842Z,96372.06
2022-09-26T13:19:26.564Z,96365.97
2022-09-26T13:22:01.679Z,96360.38
2022-09-26T13:24:55.430Z,96357.72
2022-09-26T13:27:28.590Z,96351.63
2022-09-26T13:30:08.278Z,96353.56
2022-09-26T13:33:00.627Z,96338.91
2022-09-26T13:35:29.788Z,96334.72
2022-09-26T13:38:34.724Z,96328.81
2022-09-26T13:41:07.387Z,96322.47
2022-09-26T13:43:39.730Z,96324.88
2022-09-26T13:46:34.508Z,96311.50
2022-09-26T13:49:19.848Z,96311.19
2022-09-26T13:52:02.327Z,96314.78
2022-09-26T13:54:54.171Z,96317.91
2022-09-26T13:57:35.597Z,96312.69
2022-09-26T14:00:31.230Z,96297.38
2022-09-26T14:03:08.007Z,96301.28
2022-09-26T14:05:44.229Z,96295.19
2022-09-26T14:08:48.358Z,96303.34
2022-09-26T14:11:34.353Z,96298.88
2022-09-26T14:14:24.032Z,96300.09
2022-09-26T14:16:53.379Z,96305.22
2022-09-26T14:19:36.766Z,96298.91
2022-09-26T14:22:19.024Z,96302.25
2022-09-26T14:24:46.978Z,96288.94
2022-09-26T14:27:28.935Z,96284.13
2022-09-26T14:30:30.378Z,96280.22
2022-09-26T14:33:10.228Z,96271.19
2022-09-26T14:35:38.641Z,96267.81
2022-09-26T14:38:16.255Z,96266.91
2022-09-26T14:40:57.780Z,96263.31
2022-09-26T14:43:28.336Z,96267.59
2022-09-26T14:46:04.890Z,96261.66
2022-09-26T14:48:41.772Z,96251.34
2022-09-26T14:51:11.219Z,96254.38
2022-09-26T14:53:40.264Z,96252.84
2022-09-26T14:56:12.848Z,96254.13
2022-09-26T14:58:39.732Z,96255.72
2022-09-26T15:01:18.928Z,96255.41
2022-09-26T15:03:59.735Z,96240.72
2022-09-26T15:06:28.371Z,96244.88
2022-09-26T15:08:56.379Z,96242.19
2022-09-26T15:11:38.563Z,96236.50
2022-09-26T15:14:21.362Z,96238.97
2022-09-26T15:16:52.546Z,96239.88
2022-09-26T15:19:42.744Z,96233.50
2022-09-26T15:22:16.987Z,96232.06
2022-09-26T15:24:43.557Z,96226.44
2022-09-26T15:27:28.942Z,96217.69
2022-09-26T15:30:06.430Z,96210.06
2022-09-26T15:32:33.548Z,96206.97
2022-09-26T15:35:02.384Z,96209.31
2022-09-26T15:37:34.618Z,96220.72
2022-09-26T15:40:31.860Z,96208.78
2022-09-26T15:43:12.703Z,96198.88
2022-09-26T15:46:04.552Z,96191.00
2022-09-26T15:48:34.179Z,96195.94
2022-09-26T15:51:11.278Z,96193.56
2022-09-26T15:53:40.654Z,96202.13
2022-09-26T15:56:09.666Z,96199.56
2022-09-26T15:58:46.182Z,96193.34
2022-09-26T16:01:21.394Z,96196.94
2022-09-26T16:03:59.223Z,96191.34
2022-09-26T16:06:34.791Z,96194.22
2022-09-26T16:09:21.296Z,96193.28
2022-09-26T16:11:53.266Z,96186.47
2022-09-26T16:14:29.070Z,96187.03
2022-09-26T16:17:18.841Z,96190.88
2022-09-26T16:19:57.311Z,96170.53
2022-09-26T16:22:26.933Z,96175.03
2022-09-26T16:24:53.493Z,96174.81
2022-09-26T16:27:33.517Z,96174.53
2022-09-26T16:30:04.174Z,96182.75
2022-09-26T16:32:33.986Z,96171.78
2022-09-26T16:35:20.137Z,96177.38
2022-09-26T16:38:01.233Z,96178.38
2022-09-26T16:40:29.941Z,96171.00
2022-09-26T16:43:19.075Z,96174.66
2022-09-26T16:45:51.061Z,96166.13
2022-09-26T16:48:40.626Z,96167.59
2022-09-26T16:51:30.057Z,96161.53
2022-09-26T16:54:08.510Z,96161.53
2022-09-26T16:56:39.340Z,96154.34
2022-09-26T16:59:14.654Z,96155.97
2022-09-26T17:01:54.738Z,96149.94
2022-09-26T17:04:31.418Z,96156.31
2022-09-26T17:06:59.257Z,96147.78
2022-09-26T17:09:29.747Z,96154.19
2022-09-26T17:12:05.593Z,96145.50
2022-09-26T17:14:40.667Z,96145.53
2022-09-26T17:17:17.827Z,96144.34
2022-09-26T17:19:47.622Z,96140.91
2022-09-26T17:22:22.056Z,96137.50
2022-09-26T17:24:49.595Z,96142.88
2022-09-26T17:27:19.538Z,96141.91
2022-09-26T17:29:49.594Z,96156.00
2022-09-26T17:32:25.056Z,96151.59
2022-09-26T17:34:51.684Z,96145.16
2022-09-26T17:37:20.168Z,96153.22
2022-09-26T17:39:51.602Z,96153.22
2022-09-26T17:42:18.162Z,96155.50
2022-09-26T17:44:48.171Z,96151.25
2022-09-26T17:47:16.488Z,96154.50
2022-09-26T17:49:48.178Z,96148.13
2022-09-26T17:52:32.226Z,96154.28
2022-09-26T17:55:04.218Z,96150.06
2022-09-26T17:57:33.537Z,96148.25
2022-09-26T18:00:05.642Z,96153.31
2022-09-26T18:02:36.732Z,96146.75
2022-09-26T18:05:10.466Z,96137.03
2022-09-26T18:07:41.391Z,96135.56
2022-09-26T18:10:17.073Z,96132.78
2022-09-26T18:12:45.212Z,96134.84
2022-09-26T18:15:16.595Z,96122.59
2022-09-26T18:17:43.498Z,96127.44
2022-09-26T18:20:09.987Z,96129.41
2022-09-26T18:22:36.668Z,96134.84
2022-09-26T18:25:14.911Z,96130.19
2022-09-26T18:27:43.621Z,96136.19
2022-09-26T18:30:13.662Z,96140.63
2022-09-26T18:32:44.170Z,96139.28
2022-09-26T18:35:27.706Z,96134.06
2022-09-26T18:37:55.873Z,96137.44
2022-09-26T18:40:28.668Z,96140.84
2022-09-26T18:42:57.788Z,96142.78
2022-09-26T18:45:32.693Z,96139.69
2022-09-26T18:47:59.262Z,96142.31
2022-09-26T18:50:36.764Z,96141.94
2022-09-26T18:53:05.079Z,96137.84
2022-09-26T18:55:50.070Z,96137.19
2022-09-26T18:58:25.301Z,96144.47
2022-09-26T19:00:55.165Z,96140.72
2022-09-26T19:03:23.612Z,96144.75
2022-09-26T19:05:52.375Z,96139.91
2022-09-26T19:08:39.035Z,96151.25
2022-09-26T19:11:20.055Z,96149.31
2022-09-26T19:13:52.658Z,96147.66
2022-09-26T19:16:19.870Z,96148.66
2022-09-26T19:18:48.965Z,96141.94
2022-09-26T19:21:21.477Z,96136.88
2022-09-26T19:23:49.469Z,96126.44
2022-09-26T19:26:25.401Z,96126.63
2022-09-26T19:28:52.711Z,96130.91
2022-09-26T19:31:19.245Z,96132.53
2022-09-26T19:33:47.807Z,96140.81
2022-09-26T19:36:17.831Z,96145.63
2022-09-26T19:38:44.294Z,96140.09
2022-09-26T19:41:11.235Z,96143.84
2022-09-26T19:43:38.058Z,96140.75
2022-09-26T19:46:07.148Z,96132.50
2022-09-26T19:48:38.821Z,96132.19
2022-09-26T19:51:06.830Z,96131.22
2022-09-26T19:53:34.957Z,96135.19
2022-09-26T19:56:01.773Z,96131.13
2022-09-26T19:58:28.309Z,96119.78
2022-09-26T20:01:01.955Z,96120.50
2022-09-26T20:03:34.798Z,96116.09
2022-09-26T20:06:01.745Z,96123.47
2022-09-26T20:08:28.350Z,96127.41
2022-09-26T20:10:59.156Z,96126.41
2022-09-26T20:13:25.671Z,96121.84
2022-09-26T20:15:52.294Z,96119.03
2022-09-26T20:18:22.212Z,96119.53
2022-09-26T20:20:53.346Z,96109.19
2022-09-26T20:23:22.742Z,96114.44
2022-09-26T20:25:51.751Z,96117.91
2022-09-26T20:28:18.729Z,96119.38
2022-09-26T20:30:51.277Z,96121.66
2022-09-26T20:33:21.968Z,96124.13
2022-09-26T20:36:01.866Z,96116.25
2022-09-26T20:38:50.377Z,96120.84
2022-09-26T20:41:38.794Z,96110.22
2022-09-26T20:44:18.446Z,96118.88
2022-09-26T20:46:55.860Z,96113.34
2022-09-26T20:49:34.523Z,96113.81
2022-09-26T20:52:02.397Z,96105.13
2022-09-26T20:54:31.235Z,96107.06
2022-09-26T20:56:59.035Z,96101.50
2022-09-26T20:59:26.226Z,96094.16
2022-09-26T21:01:54.504Z,96091.53
2022-09-26T21:04:31.535Z,96088.06
2022-09-26T21:06:58.564Z,96091.38
2022-09-26T21:09:25.023Z,96094.63
2022-09-26T21:11:51.566Z,96096.56
2022-09-26T21:14:18.593Z,96081.84
2022-09-26T21:16:48.029Z,96069.38
2022-09-26T21:19:22.879Z,96057.91
2022-09-26T21:21:53.368Z,96042.53
2022-09-26T21:24:29.823Z,96029.94
2022-09-26T21:26:56.425Z,96030.75
2022-09-26T21:29:27.603Z,96036.31
2022-09-26T21:31:56.086Z,96020.31
2022-09-26T21:34:25.146Z,96024.88
2022-09-26T21:36:55.323Z,96028.31
2022-09-26T21:39:24.783Z,96041.59
2022-09-26T21:41:56.641Z,96024.56
2022-09-26T21:44:32.963Z,96026.84
2022-09-26T21:46:59.399Z,96022.59
2022-09-26T21:49:25.927Z,96018.66
2022-09-26T21:52:00.661Z,96013.91
2022-09-26T21:54:32.819Z,96015.56
2022-09-26T21:57:09.680Z,96019.97
2022-09-26T21:59:42.477Z,96011.94
2022-09-26T22:02:09.026Z,96013.75
2022-09-26T22:04:35.646Z,96013.78
2022-09-26T22:07:02.223Z,96009.81
2022-09-26T22:09:28.754Z,96010.81
2022-09-26T22:11:55.187Z,96003.59
2022-09-26T22:14:21.690Z,96002.28
2022-09-26T22:16:48.192Z,96000.97
2022-09-26T22:19:14.937Z,95998.34
2022-09-26T22:21:43.043Z,95997.03
2022-09-26T22:24:10.299Z,95992.78
2022-09-26T22:26:36.819Z,95985.09
2022-09-26T22:29:03.287Z,95981.16
2022-09-26T22:31:29.886Z,95979.03
2022-09-26T22:34:00.040Z,95977.06
2022-09-26T22:36:29.501Z,95980.50
2022-09-26T22:38:55.949Z,95983.94
2022-09-26T22:41:22.406Z,95982.00
2022-09-26T22:43:49.252Z,95975.25
2022-09-26T22:46:16.405Z,95964.13
2022-09-26T22:48:47.794Z,95954.44
2022-09-26T22:51:16.166Z,95942.50
2022-09-26T22:53:43.961Z,95929.41
2022-09-26T22:56:13.779Z,95933.03
2022-09-26T22:58:49.117Z,95939.59
2022-09-26T23:01:36.184Z,95931.22
2022-09-26T23:04:02.981Z,95918.78
2022-09-26T23:06:31.273Z,95913.53
2022-09-26T23:08:57.829Z,95910.94
2022-09-26T23:11:24.842Z,95907.97
2022-09-26T23:13:52.626Z,95905.22
2022-09-26T23:16:21.569Z,95903.06
2022-09-26T23:18:49.574Z,95905.81
2022-09-26T23:21:24.180Z,95904.00
2022-09-26T23:23:54.824Z,95884.72
2022-09-26T23:26:27.920Z,95878.19
2022-09-26T23:28:58.172Z,95886.38
2022-09-26T23:31:26.142Z,95869.53
2022-09-26T23:33:53.540Z,95860.03
2022-09-26T23:36:20.254Z,95861.16
2022-09-26T23:38:47.048Z,95858.06
2022-09-26T23:41:14.578Z,95858.91
2022-09-26T23:43:41.850Z,95851.69
2022-09-26T23:46:11.111Z,95853.31
2022-09-26T23:48:39.462Z,95851.50
2022-09-26T23:51:06.053Z,95850.72
2022-09-26T23:53:33.032Z,95845.47
2022-09-26T23:56:08.848Z,95838.63
2022-09-26T23:58:37.074Z,95836.66
